createdAt,value
2018-01-08T00:02:17.432Z,76.30
2018-01-08T00:04:45.743Z,76.70
2018-01-08T00:07:13.857Z,76.60
2018-01-08T00:09:42.089Z,76.40
2018-01-08T00:12:09.649Z,76.60
2018-01-08T00:14:37.216Z,76.80
2018-01-08T00:17:04.780Z,76.60
2018-01-08T00:19:32.913Z,76.50
2018-01-08T00:22:00.499Z,76.50
2018-01-08T00:24:28.065Z,77.60
2018-01-08T00:26:55.600Z,76.80
2018-01-08T00:29:24.609Z,76.70
2018-01-08T00:31:52.736Z,76.60
2018-01-08T00:34:20.284Z,76.90
2018-01-08T00:36:47.840Z,76.90
2018-01-08T00:39:15.391Z,77.00
2018-01-08T00:41:42.990Z,76.90
2018-01-08T00:44:10.532Z,76.90
2018-01-08T00:46:38.101Z,76.90
2018-01-08T00:49:09.040Z,76.70
2018-01-08T00:51:36.583Z,76.60
2018-01-08T00:54:04.137Z,76.70
2018-01-08T00:56:31.695Z,76.80
2018-01-08T00:59:03.351Z,76.80
2018-01-08T01:01:31.338Z,76.80
2018-01-08T01:03:58.870Z,76.60
2018-01-08T01:06:27.238Z,76.60
2018-01-08T01:08:56.810Z,76.50
2018-01-08T01:11:25.531Z,76.70
2018-01-08T01:13:53.108Z,76.70
2018-01-08T01:16:20.746Z,77.00
2018-01-08T01:18:49.314Z,77.30
2018-01-08T01:21:16.874Z,76.90
2018-01-08T01:23:45.578Z,76.70
2018-01-08T01:26:13.164Z,76.50
2018-01-08T01:28:41.501Z,76.70
2018-01-08T01:31:09.066Z,76.50
2018-01-08T01:33:36.692Z,76.70
2018-01-08T01:36:04.284Z,77.00
2018-01-08T01:38:33.774Z,76.90
2018-01-08T01:41:01.387Z,77.10
2018-01-08T01:43:29.515Z,76.70
2018-01-08T01:45:57.155Z,76.90
2018-01-08T01:48:31.483Z,76.90
2018-01-08T01:50:59.022Z,77.10
2018-01-08T01:53:27.369Z,76.90
2018-01-08T01:55:54.930Z,76.80
2018-01-08T01:58:32.367Z,76.80
2018-01-08T02:01:01.320Z,77.00
2018-01-08T02:03:28.860Z,77.30
2018-01-08T02:05:56.401Z,77.00
2018-01-08T02:08:24.050Z,77.00
2018-01-08T02:10:51.632Z,76.90
2018-01-08T02:13:19.645Z,77.10
2018-01-08T02:15:47.234Z,76.90
2018-01-08T02:18:22.591Z,77.30
2018-01-08T02:20:50.262Z,77.30
2018-01-08T02:23:19.165Z,77.10
2018-01-08T02:25:47.351Z,77.00
2018-01-08T02:28:28.045Z,77.10
2018-01-08T02:30:55.586Z,77.10
2018-01-08T02:33:23.152Z,77.10
2018-01-08T02:35:50.736Z,76.90
2018-01-08T02:38:22.650Z,77.00
2018-01-08T02:40:50.262Z,77.30
2018-01-08T02:43:17.818Z,77.40
2018-01-08T02:45:45.346Z,77.30
2018-01-08T02:48:12.913Z,77.20
2018-01-08T02:50:40.477Z,77.40
2018-01-08T02:53:08.913Z,77.30
2018-01-08T02:55:37.272Z,78.20
2018-01-08T02:58:07.731Z,77.40
2018-01-08T03:00:36.063Z,77.10
2018-01-08T03:03:03.633Z,77.10
2018-01-08T03:05:31.201Z,77.40
2018-01-08T03:08:02.240Z,77.30
2018-01-08T03:10:29.812Z,77.40
2018-01-08T03:12:57.362Z,77.20
2018-01-08T03:15:24.944Z,77.40
2018-01-08T03:17:59.400Z,77.30
2018-01-08T03:20:27.628Z,77.90
2018-01-08T03:22:55.162Z,77.20
2018-01-08T03:25:22.718Z,77.10
2018-01-08T03:27:54.310Z,77.30
2018-01-08T03:30:21.848Z,77.20
2018-01-08T03:32:49.365Z,77.30
2018-01-08T03:35:17.732Z,77.10
2018-01-08T03:37:46.321Z,77.10
2018-01-08T03:40:13.879Z,77.30
2018-01-08T03:42:41.435Z,76.80
2018-01-08T03:45:09.999Z,77.10
2018-01-08T03:47:37.561Z,77.20
2018-01-08T03:50:05.152Z,77.20
2018-01-08T03:52:33.478Z,76.40
2018-01-08T03:55:01.052Z,76.90
2018-01-08T03:57:31.587Z,76.90
2018-01-08T03:59:59.148Z,76.90
2018-01-08T04:02:26.715Z,77.00
2018-01-08T04:04:54.340Z,76.90
2018-01-08T04:07:22.536Z,77.00
2018-01-08T04:09:50.107Z,77.10
2018-01-08T04:12:17.701Z,76.90
2018-01-08T04:14:45.260Z,77.00
2018-01-08T04:17:12.865Z,77.00
2018-01-08T04:19:40.453Z,77.10
2018-01-08T04:22:09.234Z,77.00
2018-01-08T04:24:37.287Z,76.80
2018-01-08T04:27:04.863Z,76.90
2018-01-08T04:29:32.399Z,77.00
2018-01-08T04:32:00.712Z,76.80
2018-01-08T04:34:28.290Z,76.60
2018-01-08T04:36:55.862Z,76.70
2018-01-08T04:39:23.422Z,76.80
2018-01-08T04:41:51.042Z,76.70
2018-01-08T04:44:18.604Z,76.70
2018-01-08T04:46:46.154Z,76.70
2018-01-08T04:49:13.739Z,76.70
2018-01-08T04:51:41.296Z,77.00
2018-01-08T04:54:08.888Z,76.70
2018-01-08T04:56:36.467Z,76.80
2018-01-08T04:59:04.079Z,76.80
2018-01-08T05:01:31.691Z,76.90
2018-01-08T05:03:59.248Z,76.90
2018-01-08T05:06:26.845Z,76.90
2018-01-08T05:08:55.131Z,77.00
2018-01-08T05:11:23.453Z,77.30
2018-01-08T05:13:51.076Z,77.20
2018-01-08T05:16:18.635Z,77.20
2018-01-08T05:18:46.979Z,77.50
2018-01-08T05:21:14.525Z,77.50
2018-01-08T05:23:42.152Z,77.40
2018-01-08T05:26:12.715Z,77.20
2018-01-08T05:28:40.256Z,77.10
2018-01-08T05:31:07.825Z,77.20
2018-01-08T05:33:35.599Z,77.30
2018-01-08T05:36:03.147Z,77.30
2018-01-08T05:38:30.708Z,77.20
2018-01-08T05:40:58.907Z,77.40
2018-01-08T05:43:26.471Z,77.30
2018-01-08T05:45:56.682Z,77.50
2018-01-08T05:48:29.153Z,77.40
2018-01-08T05:50:56.765Z,77.60
2018-01-08T05:53:24.342Z,77.70
2018-01-08T05:55:52.670Z,77.80
2018-01-08T05:58:20.269Z,77.70
2018-01-08T06:00:47.848Z,77.60
2018-01-08T06:03:16.179Z,77.70
2018-01-08T06:05:43.730Z,77.60
2018-01-08T06:08:11.317Z,77.90
2018-01-08T06:10:38.914Z,77.80
2018-01-08T06:13:07.480Z,77.80
2018-01-08T06:15:35.780Z,77.80
2018-01-08T06:18:11.217Z,77.80
2018-01-08T06:20:40.388Z,77.70
2018-01-08T06:23:08.909Z,77.70
2018-01-08T06:25:36.539Z,77.60
2018-01-08T06:28:04.125Z,77.50
2018-01-08T06:30:31.768Z,77.60
2018-01-08T06:32:59.400Z,77.70
2018-01-08T06:35:27.005Z,77.60
2018-01-08T06:38:01.582Z,77.40
2018-01-08T06:40:29.275Z,77.40
2018-01-08T06:42:56.861Z,77.40
2018-01-08T06:45:24.410Z,77.40
2018-01-08T06:47:59.018Z,77.50
2018-01-08T06:50:26.588Z,77.40
2018-01-08T06:52:55.218Z,77.30
2018-01-08T06:55:23.596Z,77.40
2018-01-08T06:57:52.954Z,77.30
2018-01-08T07:00:20.577Z,77.30
2018-01-08T07:02:48.156Z,77.30
2018-01-08T07:05:15.738Z,77.10
2018-01-08T07:07:44.572Z,77.20
2018-01-08T07:10:12.548Z,77.30
2018-01-08T07:12:40.936Z,77.00
2018-01-08T07:15:09.279Z,77.00
2018-01-08T07:17:36.863Z,76.90
2018-01-08T07:20:05.185Z,77.10
2018-01-08T07:22:33.985Z,77.10
2018-01-08T07:25:01.560Z,76.90
2018-01-08T07:27:29.135Z,76.80
2018-01-08T07:29:56.674Z,76.80
2018-01-08T07:32:25.082Z,76.60
2018-01-08T07:34:52.738Z,76.70
2018-01-08T07:37:22.332Z,76.50
2018-01-08T07:39:50.914Z,76.50
2018-01-08T07:42:18.480Z,76.50
2018-01-08T07:44:46.256Z,76.50
2018-01-08T07:47:13.825Z,76.70
2018-01-08T07:49:41.385Z,76.40
2018-01-08T07:52:08.999Z,76.50
2018-01-08T07:54:36.571Z,76.50
2018-01-08T07:57:05.179Z,76.60
2018-01-08T07:59:33.443Z,76.60
2018-01-08T08:02:01.010Z,76.50
2018-01-08T08:04:28.553Z,76.40
2018-01-08T08:06:56.122Z,76.60
2018-01-08T08:09:24.661Z,76.40
2018-01-08T08:11:52.236Z,76.60
2018-01-08T08:14:19.808Z,76.60
2018-01-08T08:16:47.372Z,76.40
2018-01-08T08:19:14.920Z,76.60
2018-01-08T08:21:43.266Z,76.70
2018-01-08T08:24:10.844Z,76.50
2018-01-08T08:26:38.433Z,76.70
2018-01-08T08:29:06.788Z,76.60
2018-01-08T08:31:34.339Z,76.50
2018-01-08T08:34:01.969Z,76.60
2018-01-08T08:36:29.561Z,76.60
2018-01-08T08:38:57.126Z,77.30
2018-01-08T08:41:24.679Z,76.50
2018-01-08T08:43:52.276Z,76.70
2018-01-08T08:46:20.661Z,76.50
2018-01-08T08:48:53.715Z,76.50
2018-01-08T08:51:21.290Z,76.40
2018-01-08T08:53:48.866Z,76.30
2018-01-08T08:56:16.454Z,76.10
2018-01-08T08:58:44.018Z,76.10
2018-01-08T09:01:11.588Z,76.00
2018-01-08T09:03:39.210Z,75.80
2018-01-08T09:06:07.643Z,75.80
2018-01-08T09:08:35.205Z,75.60
2018-01-08T09:11:02.768Z,75.50
2018-01-08T09:13:30.402Z,75.40
2018-01-08T09:15:59.273Z,75.50
2018-01-08T09:18:29.899Z,75.20
2018-01-08T09:20:57.471Z,74.70
2018-01-08T09:23:25.767Z,74.90
2018-01-08T09:25:54.139Z,75.30
2018-01-08T09:28:21.712Z,74.50
2018-01-08T09:30:50.088Z,74.30
2018-01-08T09:33:18.483Z,74.20
2018-01-08T09:35:46.038Z,74.10
2018-01-08T09:38:13.652Z,74.30
2018-01-08T09:40:41.721Z,73.90
2018-01-08T09:43:09.322Z,73.90
2018-01-08T09:45:37.673Z,73.80
2018-01-08T09:48:05.259Z,73.80
2018-01-08T09:50:33.630Z,73.60
2018-01-08T09:53:01.207Z,73.60
2018-01-08T09:55:29.563Z,73.00
2018-01-08T09:58:00.208Z,72.90
2018-01-08T10:00:27.780Z,72.70
2018-01-08T10:03:08.092Z,72.60
2018-01-08T10:05:47.535Z,72.60
2018-01-08T10:08:26.965Z,72.30
2018-01-08T10:11:06.551Z,72.10
2018-01-08T10:13:46.072Z,72.00
2018-01-08T10:16:25.514Z,71.60
2018-01-08T10:19:02.672Z,71.60
2018-01-08T10:21:30.308Z,71.50
2018-01-08T10:23:58.662Z,71.00
2018-01-08T10:26:26.251Z,70.90
2018-01-08T10:28:56.542Z,70.80
2018-01-08T10:31:24.173Z,70.80
2018-01-08T10:33:51.733Z,70.50
2018-01-08T10:36:19.310Z,70.20
2018-01-08T10:38:46.901Z,70.20
2018-01-08T10:41:14.000Z,70.40
2018-01-08T10:43:47.273Z,69.70
2018-01-08T10:46:21.183Z,69.50
2018-01-08T10:48:55.067Z,69.40
2018-01-08T10:51:28.258Z,69.40
2018-01-08T10:53:55.860Z,69.90
2018-01-08T10:56:23.417Z,69.40
2018-01-08T10:58:51.935Z,69.80
2018-01-08T11:01:25.780Z,69.50
2018-01-08T11:03:59.026Z,69.00
2018-01-08T11:06:27.354Z,68.90
2018-01-08T11:08:54.916Z,69.40
2018-01-08T11:11:22.494Z,69.40
2018-01-08T11:13:52.050Z,68.90
2018-01-08T11:16:20.410Z,68.40
2018-01-08T11:18:47.963Z,68.30
2018-01-08T11:21:15.523Z,68.50
2018-01-08T11:23:43.071Z,68.20
2018-01-08T11:26:10.659Z,68.10
2018-01-08T11:28:40.213Z,67.20
2018-01-08T11:31:07.794Z,67.70
2018-01-08T11:33:35.425Z,67.50
2018-01-08T11:36:03.026Z,67.50
2018-01-08T11:38:32.329Z,67.10
2018-01-08T11:41:01.272Z,66.80
2018-01-08T11:43:28.858Z,66.80
2018-01-08T11:45:56.428Z,66.00
2018-01-08T11:48:36.450Z,65.90
2018-01-08T11:51:04.086Z,66.10
2018-01-08T11:53:31.658Z,65.70
2018-01-08T11:56:00.410Z,65.80
2018-01-08T11:58:29.820Z,65.70
2018-01-08T12:00:58.140Z,65.70
2018-01-08T12:03:25.770Z,65.60
2018-01-08T12:05:54.105Z,66.00
2018-01-08T12:08:21.718Z,65.60
2018-01-08T12:10:49.285Z,65.20
2018-01-08T12:13:16.881Z,65.10
2018-01-08T12:15:44.433Z,64.90
2018-01-08T12:18:13.059Z,65.20
2018-01-08T12:20:41.245Z,65.70
2018-01-08T12:23:09.589Z,65.40
2018-01-08T12:25:37.189Z,65.40
2018-01-08T12:28:05.906Z,65.50
2018-01-08T12:30:34.454Z,66.30
2018-01-08T12:33:02.818Z,65.50
2018-01-08T12:35:30.490Z,65.10
2018-01-08T12:38:00.105Z,65.50
2018-01-08T12:40:28.600Z,65.10
2018-01-08T12:42:56.937Z,66.00
2018-01-08T12:45:24.557Z,66.00
2018-01-08T12:47:53.074Z,65.10
2018-01-08T12:50:20.662Z,65.30
2018-01-08T12:52:48.242Z,65.50
2018-01-08T12:55:15.813Z,64.80
2018-01-08T12:57:44.133Z,65.50
2018-01-08T13:00:19.391Z,65.50
2018-01-08T13:02:50.847Z,65.20
2018-01-08T13:05:21.999Z,65.20
2018-01-08T13:07:59.895Z,65.10
2018-01-08T13:10:27.474Z,65.10
2018-01-08T13:12:55.036Z,64.20
2018-01-08T13:15:22.644Z,64.80
2018-01-08T13:17:50.700Z,64.30
2018-01-08T13:20:19.028Z,64.20
2018-01-08T13:22:46.658Z,64.20
2018-01-08T13:25:15.078Z,64.30
2018-01-08T13:27:46.121Z,64.30
2018-01-08T13:30:13.730Z,64.40
2018-01-08T13:32:42.045Z,64.20
2018-01-08T13:35:09.629Z,64.20
2018-01-08T13:37:37.273Z,64.60
2018-01-08T13:40:05.375Z,64.80
2018-01-08T13:42:32.975Z,64.80
2018-01-08T13:45:01.047Z,65.00
2018-01-08T13:47:29.384Z,65.90
2018-01-08T13:49:56.975Z,65.90
2018-01-08T13:52:24.569Z,66.10
2018-01-08T13:54:52.210Z,65.90
2018-01-08T13:57:25.762Z,66.40
2018-01-08T13:59:54.016Z,66.40
2018-01-08T14:02:23.874Z,66.70
2018-01-08T14:04:51.460Z,66.70
2018-01-08T14:07:19.048Z,66.70
2018-01-08T14:09:47.383Z,66.80
2018-01-08T14:12:14.986Z,66.70
2018-01-08T14:14:43.291Z,66.70
2018-01-08T14:17:10.853Z,66.60
2018-01-08T14:19:38.535Z,67.60
2018-01-08T14:22:06.173Z,66.90
2018-01-08T14:24:33.789Z,66.90
2018-01-08T14:27:01.399Z,67.40
2018-01-08T14:29:28.986Z,67.40
2018-01-08T14:31:56.539Z,67.10
2018-01-08T14:34:24.159Z,67.40
2018-01-08T14:36:53.096Z,67.60
2018-01-08T14:39:26.088Z,67.60
2018-01-08T14:41:53.686Z,67.30
2018-01-08T14:44:21.248Z,67.40
2018-01-08T14:46:48.805Z,67.60
2018-01-08T14:49:16.442Z,67.80
2018-01-08T14:51:44.056Z,68.00
2018-01-08T14:54:11.666Z,67.60
2018-01-08T14:56:39.248Z,67.60
2018-01-08T14:59:06.799Z,68.30
2018-01-08T15:01:34.376Z,68.60
2018-01-08T15:04:01.969Z,68.50
2018-01-08T15:06:29.591Z,68.70
2018-01-08T15:08:58.148Z,68.60
2018-01-08T15:11:25.729Z,69.20
2018-01-08T15:13:53.341Z,69.50
2018-01-08T15:16:21.707Z,70.10
2018-01-08T15:18:49.320Z,70.10
2018-01-08T15:21:18.014Z,70.20
2018-01-08T15:23:45.616Z,70.00
2018-01-08T15:26:13.235Z,70.00
2018-01-08T15:28:40.898Z,70.20
2018-01-08T15:31:08.473Z,70.40
2018-01-08T15:33:36.095Z,70.50
2018-01-08T15:36:06.354Z,70.70
2018-01-08T15:38:37.432Z,71.00
2018-01-08T15:41:05.913Z,71.30
2018-01-08T15:43:33.485Z,71.40
2018-01-08T15:46:01.134Z,71.30
2018-01-08T15:48:32.401Z,71.40
2018-01-08T15:51:00.072Z,71.80
2018-01-08T15:53:28.443Z,71.90
2018-01-08T15:55:56.002Z,72.00
2018-01-08T15:58:23.569Z,72.00
2018-01-08T16:00:51.984Z,72.30
2018-01-08T16:03:19.576Z,72.30
2018-01-08T16:05:47.574Z,72.30
2018-01-08T16:08:15.184Z,72.40
2018-01-08T16:10:43.684Z,72.80
2018-01-08T16:13:12.065Z,72.90
2018-01-08T16:15:39.744Z,72.60
2018-01-08T16:18:07.321Z,72.90
2018-01-08T16:20:34.886Z,73.10
2018-01-08T16:23:02.469Z,73.30
2018-01-08T16:25:32.023Z,73.90
2018-01-08T16:28:02.148Z,73.40
2018-01-08T16:30:30.389Z,73.60
2018-01-08T16:32:59.558Z,73.40
2018-01-08T16:35:27.134Z,73.40
2018-01-08T16:37:56.555Z,73.70
2018-01-08T16:40:24.949Z,73.70
2018-01-08T16:42:52.646Z,73.60
2018-01-08T16:45:20.266Z,73.60
2018-01-08T16:47:51.285Z,73.70
2018-01-08T16:50:18.858Z,73.90
2018-01-08T16:52:47.274Z,74.10
2018-01-08T16:55:16.344Z,75.10
2018-01-08T16:57:44.710Z,74.10
2018-01-08T17:00:13.284Z,74.10
2018-01-08T17:02:40.877Z,74.30
2018-01-08T17:05:09.233Z,74.30
2018-01-08T17:07:36.832Z,74.30
2018-01-08T17:10:08.855Z,74.40
2018-01-08T17:12:37.237Z,74.40
2018-01-08T17:15:04.870Z,74.20
2018-01-08T17:17:33.468Z,74.30
2018-01-08T17:20:01.112Z,74.00
2018-01-08T17:22:28.687Z,73.80
2018-01-08T17:24:57.022Z,73.40
2018-01-08T17:27:24.730Z,73.60
2018-01-08T17:29:52.306Z,73.10
2018-01-08T17:32:19.879Z,72.80
2018-01-08T17:34:48.206Z,72.50
2018-01-08T17:37:15.831Z,72.30
2018-01-08T17:39:43.386Z,72.50
2018-01-08T17:42:11.009Z,71.60
2018-01-08T17:44:38.620Z,71.70
2018-01-08T17:47:08.225Z,71.80
2018-01-08T17:49:35.806Z,71.40
2018-01-08T17:52:03.409Z,71.20
2018-01-08T17:54:31.003Z,71.20
2018-01-08T17:56:58.595Z,71.30
2018-01-08T17:59:26.947Z,72.10
2018-01-08T18:01:54.993Z,71.30
2018-01-08T18:04:22.615Z,71.30
2018-01-08T18:06:55.116Z,71.70
2018-01-08T18:09:22.741Z,71.70
2018-01-08T18:11:51.856Z,71.80
2018-01-08T18:14:20.228Z,71.80
2018-01-08T18:16:48.650Z,72.00
2018-01-08T18:19:16.256Z,72.00
2018-01-08T18:21:43.870Z,71.70
2018-01-08T18:24:12.340Z,72.30
2018-01-08T18:26:39.951Z,71.80
2018-01-08T18:29:07.558Z,72.00
2018-01-08T18:31:35.180Z,71.70
2018-01-08T18:34:03.684Z,71.80
2018-01-08T18:36:32.060Z,71.90
2018-01-08T18:39:00.295Z,71.90
2018-01-08T18:41:27.855Z,71.70
2018-01-08T18:43:56.776Z,72.90
2018-01-08T18:46:25.149Z,71.90
2018-01-08T18:48:52.869Z,71.90
2018-01-08T18:51:20.441Z,71.80
2018-01-08T18:53:48.059Z,72.20
2018-01-08T18:56:15.626Z,71.90
2018-01-08T18:58:47.306Z,72.20
2018-01-08T19:03:56.557Z,72.20
2018-01-08T19:06:25.118Z,72.40
2018-01-08T19:08:56.224Z,72.40
2018-01-08T19:11:23.798Z,72.30
2018-01-08T19:13:51.533Z,72.40
2018-01-08T19:16:19.222Z,72.60
2018-01-08T19:18:51.621Z,72.60
2018-01-08T19:21:19.921Z,73.50
2018-01-08T19:23:47.529Z,72.20
2018-01-08T19:26:15.173Z,73.00
2018-01-08T19:28:43.111Z,73.20
2018-01-08T19:31:10.751Z,73.00
2018-01-08T19:33:38.383Z,73.20
2018-01-08T19:36:05.996Z,74.00
2018-01-08T19:38:34.348Z,73.50
2018-01-08T19:41:02.020Z,74.10
2018-01-08T19:43:29.768Z,73.50
2018-01-08T19:45:57.384Z,73.60
2018-01-08T19:48:26.046Z,73.80
2018-01-08T19:50:53.724Z,73.90
2018-01-08T19:53:21.698Z,74.00
2018-01-08T19:55:49.682Z,74.20
2018-01-08T19:58:17.365Z,74.20
2018-01-08T20:00:45.438Z,74.40
2018-01-08T20:03:18.288Z,74.60
2018-01-08T20:05:45.987Z,74.60
2018-01-08T20:08:14.379Z,74.60
2018-01-08T20:10:41.949Z,74.90
2018-01-08T20:13:09.536Z,74.70
2018-01-08T20:15:37.973Z,75.00
2018-01-08T20:18:06.517Z,75.10
2018-01-08T20:20:34.899Z,75.40
2018-01-08T20:23:02.469Z,75.40
2018-01-08T20:25:30.084Z,75.50
2018-01-08T20:27:57.779Z,75.60
2018-01-08T20:30:25.460Z,75.80
2018-01-08T20:32:53.472Z,76.00
2018-01-08T20:35:21.700Z,75.90
2018-01-08T20:37:49.266Z,76.00
2018-01-08T20:40:16.992Z,76.00
2018-01-08T20:42:45.893Z,76.10
2018-01-08T20:45:13.518Z,76.10
2018-01-08T20:47:42.893Z,76.30
2018-01-08T20:50:11.447Z,76.30
2018-01-08T20:52:39.038Z,76.40
2018-01-08T20:55:06.661Z,76.30
2018-01-08T20:57:36.215Z,76.40
2018-01-08T21:00:03.844Z,76.60
2018-01-08T21:02:31.487Z,76.60
2018-01-08T21:05:00.050Z,76.60
2018-01-08T21:07:27.748Z,76.60
2018-01-08T21:09:55.493Z,76.70
2018-01-08T21:12:23.231Z,76.80
2018-01-08T21:14:50.824Z,76.80
2018-01-08T21:17:19.429Z,77.00
2018-01-08T21:19:47.100Z,77.10
2018-01-08T21:22:15.529Z,77.10
2018-01-08T21:24:43.889Z,77.20
2018-01-08T21:27:12.504Z,77.10
2018-01-08T21:29:40.086Z,77.30
2018-01-08T21:32:09.843Z,77.40
2018-01-08T21:34:37.499Z,77.50
2018-01-08T21:37:05.071Z,77.60
2018-01-08T21:39:32.746Z,77.60
2018-01-08T21:42:00.336Z,77.70
2018-01-08T21:44:28.842Z,77.70
2018-01-08T21:46:57.799Z,77.80
2018-01-08T21:49:30.484Z,78.00
2018-01-08T21:52:01.490Z,78.00
2018-01-08T21:54:29.072Z,78.10
2018-01-08T21:56:58.178Z,78.20
2018-01-08T21:59:31.056Z,78.20
2018-01-08T22:01:59.624Z,78.30
2018-01-08T22:04:28.738Z,78.30
2018-01-08T22:06:59.355Z,78.60
2018-01-08T22:09:29.192Z,78.50
2018-01-08T22:11:59.134Z,78.70
2018-01-08T22:14:29.287Z,78.70
2018-01-08T22:17:00.957Z,78.70
2018-01-08T22:19:32.003Z,78.80
2018-01-08T22:21:59.559Z,78.90
2018-01-08T22:24:27.365Z,79.00
2018-01-08T22:26:54.949Z,79.10
2018-01-08T22:29:23.364Z,80.00
2018-01-08T22:31:50.994Z,79.20
2018-01-08T22:34:19.326Z,79.40
2018-01-08T22:36:46.986Z,79.40
2018-01-08T22:39:15.608Z,79.60
2018-01-08T22:41:43.984Z,79.80
2018-01-08T22:44:11.592Z,79.80
2018-01-08T22:46:39.302Z,79.90
2018-01-08T22:49:09.883Z,79.90
2018-01-08T22:51:37.436Z,80.10
2018-01-08T22:54:05.104Z,80.20
2018-01-08T22:56:32.737Z,80.30
2018-01-08T22:59:01.326Z,80.30
2018-01-08T23:01:28.961Z,80.40
2018-01-08T23:03:57.129Z,80.40
2018-01-08T23:06:24.711Z,80.60
2018-01-08T23:08:52.448Z,80.60
2018-01-08T23:11:20.864Z,80.70
2018-01-08T23:13:48.434Z,80.90
2018-01-08T23:16:16.046Z,80.80
2018-01-08T23:18:46.010Z,80.80
2018-01-08T23:21:13.589Z,81.10
2018-01-08T23:23:41.976Z,81.20
2018-01-08T23:26:09.541Z,81.20
2018-01-08T23:28:37.126Z,81.20
2018-01-08T23:31:04.756Z,81.30
2018-01-08T23:33:33.073Z,81.40
2018-01-08T23:36:00.654Z,81.40
2018-01-08T23:38:29.288Z,81.60
2018-01-08T23:40:57.619Z,81.70
2018-01-08T23:43:25.215Z,81.70
2018-01-08T23:45:53.579Z,81.70
2018-01-08T23:48:24.360Z,81.60
2018-01-08T23:50:52.003Z,81.70
2018-01-08T23:53:20.342Z,81.60
2018-01-08T23:55:47.930Z,81.60
2018-01-08T23:58:15.498Z,81.50
